createdAt,value
2022-08-17T04:28:15.563Z,6.5
2022-08-17T04:30:28.577Z,6.9
2022-08-17T04:32:59.560Z,6.3
2022-08-17T04:35:00.472Z,6.2
2022-08-17T04:37:15.794Z,6.3
2022-08-17T04:39:30.182Z,6.4
2022-08-17T04:41:45.585Z,6.3
2022-08-17T04:44:01.068Z,6.2
2022-08-17T04:46:15.394Z,6.4
2022-08-17T04:48:35.880Z,5.5
2022-08-17T04:50:47.227Z,5.8
2022-08-17T04:53:01.839Z,6.3
2022-08-17T04:55:16.117Z,5.5
2022-08-17T04:57:31.531Z,5.6
2022-08-17T04:59:47.162Z,5.7
2022-08-17T05:02:09.365Z,5.8
2022-08-17T05:04:33.706Z,5.2
2022-08-17T05:06:41.079Z,5.6
2022-08-17T05:08:55.502Z,5.3
2022-08-17T05:11:10.009Z,6
2022-08-17T05:13:24.516Z,5.8
2022-08-17T05:15:44.776Z,5.6
2022-08-17T05:17:55.373Z,6
2022-08-17T05:20:09.808Z,5.9
2022-08-17T05:22:24.189Z,6.2
2022-08-17T05:24:43.395Z,6.2
2022-08-17T05:26:59.449Z,5.9
2022-08-17T05:29:12.548Z,5.9
2022-08-17T05:31:27.969Z,6
2022-08-17T05:33:46.264Z,6
2022-08-17T05:35:59.731Z,6.3
2022-08-17T05:38:14.139Z,6.2
2022-08-17T05:40:32.705Z,6.1
2022-08-17T05:42:45.971Z,6.2
2022-08-17T05:45:00.390Z,5.6
2022-08-17T05:47:14.815Z,6.5
2022-08-17T05:49:29.311Z,6.1
2022-08-17T05:51:43.723Z,5.9
2022-08-17T05:53:58.147Z,6.1
2022-08-17T05:56:29.214Z,5.6
2022-08-17T05:58:29.958Z,5.5
2022-08-17T06:00:44.449Z,5.6
2022-08-17T06:02:58.765Z,5.8
2022-08-17T06:05:13.350Z,5.8
2022-08-17T06:07:27.726Z,5.6
2022-08-17T06:09:42.111Z,6.4
2022-08-17T06:11:58.706Z,6.8
2022-08-17T06:14:12.856Z,6.9
2022-08-17T06:16:33.953Z,6.9
2022-08-17T06:18:44.664Z,6.5
2022-08-17T06:20:59.109Z,6.9
2022-08-17T06:23:14.522Z,6.8
2022-08-17T06:25:28.922Z,6.7
2022-08-17T06:27:43.349Z,7.3
2022-08-17T06:29:57.742Z,6.3
2022-08-17T06:32:13.217Z,6.5
2022-08-17T06:34:27.543Z,6.6
2022-08-17T06:36:42.869Z,5.8
2022-08-17T06:38:57.291Z,7
2022-08-17T06:41:11.768Z,7.3
2022-08-17T06:43:26.201Z,6.8
2022-08-17T06:45:40.620Z,7
2022-08-17T06:47:55.031Z,7.5
2022-08-17T06:50:09.458Z,7.4
2022-08-17T06:52:42.146Z,7.1
2022-08-17T06:54:41.318Z,7.1
2022-08-17T06:56:56.612Z,7
2022-08-17T06:59:11.234Z,7
2022-08-17T07:01:25.669Z,6.9
2022-08-17T07:03:40.106Z,7.4
2022-08-17T07:05:55.495Z,7.6
2022-08-17T07:08:10.922Z,6.9
2022-08-17T07:10:25.371Z,7.1
2022-08-17T07:12:39.695Z,7.3
2022-08-17T07:14:54.288Z,6.8
2022-08-17T07:17:08.691Z,7.2
2022-08-17T07:19:23.095Z,6.8
2022-08-17T07:21:37.469Z,7
2022-08-17T07:23:51.866Z,6.8
2022-08-17T07:26:06.254Z,7.4
2022-08-17T07:28:20.693Z,7.4
2022-08-17T07:30:37.245Z,7.5
2022-08-17T07:32:52.500Z,8
2022-08-17T07:35:10.608Z,6.8
2022-08-17T07:37:24.411Z,7.2
2022-08-17T07:39:59.508Z,7.8
2022-08-17T07:41:58.945Z,7.9
2022-08-17T07:44:13.540Z,7.8
2022-08-17T07:46:27.910Z,7.4
2022-08-17T07:48:42.317Z,7.3
2022-08-17T07:50:56.704Z,7.9
2022-08-17T07:53:11.102Z,7.7
2022-08-17T07:55:25.506Z,7.8
2022-08-17T07:57:39.879Z,8.4
2022-08-17T07:59:54.338Z,7.8
2022-08-17T08:02:10.835Z,7.9
2022-08-17T08:04:58.812Z,7.9
2022-08-17T08:06:43.591Z,7.9
2022-08-17T08:08:58.016Z,8.6
2022-08-17T08:11:12.454Z,8.2
2022-08-17T08:13:26.884Z,8.5
2022-08-17T08:15:44.970Z,9
2022-08-17T08:17:58.626Z,9.4
2022-08-17T08:20:19.647Z,8.9
2022-08-17T08:22:31.422Z,8.5
2022-08-17T08:24:45.809Z,8.9
2022-08-17T08:27:00.191Z,9.2
2022-08-17T08:29:14.607Z,9.1
2022-08-17T08:31:30.063Z,9.1
2022-08-17T08:33:44.449Z,9.3
2022-08-17T08:35:58.830Z,9.5
2022-08-17T08:38:13.253Z,9.4
2022-08-17T08:40:27.676Z,9.2
2022-08-17T08:42:42.087Z,8.6
2022-08-17T08:44:59.325Z,9.1
2022-08-17T08:47:13.965Z,8.8
2022-08-17T08:49:59.393Z,9.6
2022-08-17T08:51:45.687Z,10.2
2022-08-17T08:54:00.149Z,9.7
2022-08-17T08:56:14.567Z,9.4
2022-08-17T08:58:32.246Z,10.9
2022-08-17T09:00:46.371Z,11.1
2022-08-17T09:03:00.750Z,10.2
2022-08-17T09:05:16.336Z,11.3
2022-08-17T09:07:30.543Z,10.4
2022-08-17T09:09:44.907Z,10.5
2022-08-17T09:12:03.374Z,10.2
2022-08-17T09:14:21.392Z,11.8
2022-08-17T09:16:34.079Z,11.1
2022-08-17T09:18:59.568Z,12
2022-08-17T09:21:05.854Z,11.7
2022-08-17T09:23:20.263Z,11.1
2022-08-17T09:25:35.673Z,11.2
2022-08-17T09:27:50.136Z,11.6
2022-08-17T09:30:04.470Z,11.8
2022-08-17T09:32:19.434Z,11.4
2022-08-17T09:34:34.741Z,11.4
2022-08-17T09:36:51.055Z,11.2
2022-08-17T09:39:05.473Z,11.9
2022-08-17T09:41:19.989Z,11.6
2022-08-17T09:43:34.504Z,11.7
2022-08-17T09:45:48.938Z,12.8
2022-08-17T09:48:03.276Z,13.3
2022-08-17T09:50:17.618Z,14.1
2022-08-17T09:52:32.052Z,14.3
2022-08-17T09:54:47.488Z,14.3
2022-08-17T09:57:26.164Z,13.5
2022-08-17T09:59:19.296Z,13
2022-08-17T10:01:33.932Z,13
2022-08-17T10:03:48.244Z,13.2
2022-08-17T10:06:02.769Z,14.9
2022-08-17T10:08:21.560Z,13.2
2022-08-17T10:10:34.523Z,12.3
2022-08-17T10:12:53.109Z,13.9
2022-08-17T10:15:09.401Z,13.3
2022-08-17T10:17:23.625Z,12.7
2022-08-17T10:19:38.147Z,13.2
2022-08-17T10:22:01.304Z,12.7
2022-08-17T10:24:09.879Z,12.3
2022-08-17T10:26:24.305Z,11.6
2022-08-17T10:28:38.763Z,13
2022-08-17T10:31:05.434Z,12.6
2022-08-17T10:33:09.576Z,11.9
2022-08-17T10:35:24.211Z,12.3
2022-08-17T10:37:38.621Z,15.2
2022-08-17T10:39:54.034Z,12.3
2022-08-17T10:42:08.380Z,11.8
2022-08-17T10:44:36.850Z,12
2022-08-17T10:46:40.176Z,12.6
2022-08-17T10:48:54.704Z,12.1
2022-08-17T10:51:09.292Z,11.5
2022-08-17T10:53:23.722Z,12.4
2022-08-17T10:55:39.097Z,14.2
2022-08-17T10:57:53.495Z,14.1
2022-08-17T11:00:07.821Z,13.6
2022-08-17T11:02:22.338Z,12.5
2022-08-17T11:04:36.720Z,12.3
2022-08-17T11:06:51.072Z,12.5
2022-08-17T11:09:05.462Z,12.3
2022-08-17T11:11:19.953Z,12.8
2022-08-17T11:13:34.336Z,12.7
2022-08-17T11:15:49.708Z,12.2
2022-08-17T11:18:04.041Z,13
2022-08-17T11:20:18.642Z,14.3
2022-08-17T11:22:33.944Z,12.8
2022-08-17T11:24:48.444Z,12.7
2022-08-17T11:27:02.790Z,13.7
2022-08-17T11:29:18.138Z,13.3
2022-08-17T11:31:38.244Z,13.8
2022-08-17T11:33:49.808Z,14.1
2022-08-17T11:36:04.154Z,14.2
2022-08-17T11:38:18.573Z,13
2022-08-17T11:40:32.921Z,13
2022-08-17T11:42:47.373Z,15.2
2022-08-17T11:45:01.743Z,15.4
2022-08-17T11:47:16.110Z,13
2022-08-17T11:49:30.416Z,13.9
2022-08-17T11:51:44.790Z,15
2022-08-17T11:54:21.854Z,14.1
2022-08-17T11:56:16.537Z,14.6
2022-08-17T11:58:30.952Z,12.7
2022-08-17T12:00:45.423Z,12.5
2022-08-17T12:02:59.868Z,11.8
2022-08-17T12:05:14.239Z,12
2022-08-17T12:07:28.666Z,12.2
2022-08-17T12:09:43.078Z,12.9
2022-08-17T12:12:12.224Z,12.4
2022-08-17T12:14:19.239Z,13.3
2022-08-17T12:16:32.294Z,13.4
2022-08-17T12:18:46.640Z,13
2022-08-17T12:21:01.137Z,13.8
2022-08-17T12:23:15.479Z,14.6
2022-08-17T12:25:29.975Z,14.6
2022-08-17T12:27:57.758Z,16.700001
2022-08-17T12:30:01.722Z,15.8
2022-08-17T12:32:16.208Z,15.6
2022-08-17T12:34:30.566Z,15.7
2022-08-17T12:36:45.021Z,16.5
2022-08-17T12:38:59.594Z,15.1
2022-08-17T12:41:14.989Z,17.6
2022-08-17T12:43:30.494Z,17.799999
2022-08-17T12:45:45.903Z,17.200001
2022-08-17T12:48:00.262Z,17.1
2022-08-17T12:50:29.332Z,14.9
2022-08-17T12:52:32.277Z,14.6
2022-08-17T12:54:46.673Z,16.700001
2022-08-17T12:57:01.098Z,16.799999
2022-08-17T12:59:17.499Z,17.9
2022-08-17T13:01:33.005Z,17.299999
2022-08-17T13:03:47.323Z,16.4
2022-08-17T13:06:01.734Z,14.3
2022-08-17T13:08:16.151Z,15.6
2022-08-17T13:10:33.345Z,16.9
2022-08-17T13:12:46.977Z,18.6
2022-08-17T13:15:01.457Z,19
2022-08-17T13:17:15.803Z,17.6
2022-08-17T13:19:40.203Z,19.200001
2022-08-17T13:21:47.754Z,19.4
2022-08-17T13:24:02.175Z,20.9
2022-08-17T13:26:16.582Z,20.5
2022-08-17T13:28:36.270Z,19.6
2022-08-17T13:30:48.355Z,18
2022-08-17T13:33:05.139Z,17.299999
2022-08-17T13:35:27.349Z,19.799999
2022-08-17T13:37:36.684Z,19.299999
2022-08-17T13:39:51.251Z,18.700001
2022-08-17T13:42:05.589Z,18.200001
2022-08-17T13:44:19.926Z,17.1
2022-08-17T13:46:34.314Z,18.6
2022-08-17T13:48:48.711Z,18.4
2022-08-17T13:51:03.121Z,16.799999
2022-08-17T13:53:17.558Z,16.799999
2022-08-17T13:55:32.169Z,17.299999
2022-08-17T13:57:46.664Z,17.200001
2022-08-17T14:00:01.118Z,17.200001
2022-08-17T14:02:15.579Z,14.9
2022-08-17T14:04:29.939Z,15.5
2022-08-17T14:06:49.404Z,13
2022-08-17T14:09:01.689Z,12.5
2022-08-17T14:11:16.145Z,11.8
2022-08-17T14:13:30.428Z,10.9
2022-08-17T14:15:53.763Z,10.6
2022-08-17T14:18:02.122Z,10.4
2022-08-17T14:20:16.520Z,9.9
2022-08-17T14:22:32.908Z,10.6
2022-08-17T14:24:47.222Z,11.8
2022-08-17T14:27:01.611Z,10
2022-08-17T14:29:16.986Z,10.1
2022-08-17T14:31:37.370Z,10
2022-08-17T14:33:48.655Z,9.8
2022-08-17T14:36:03.512Z,8.9
2022-08-17T14:38:17.724Z,9.5
2022-08-17T14:40:32.090Z,10.3
2022-08-17T14:42:47.549Z,11.8
2022-08-17T14:45:01.932Z,11.6
2022-08-17T14:47:16.370Z,9.7
2022-08-17T14:49:30.715Z,10.8
2022-08-17T14:51:46.039Z,10.3
2022-08-17T14:54:00.468Z,10.2
2022-08-17T14:56:14.899Z,9.8
2022-08-17T14:58:29.361Z,10.1
2022-08-17T15:00:43.872Z,9.4
2022-08-17T15:02:58.304Z,10.4
2022-08-17T15:05:12.707Z,10.9
2022-08-17T15:07:30.385Z,9
2022-08-17T15:09:45.441Z,9.5
2022-08-17T15:11:59.936Z,9
2022-08-17T15:14:14.256Z,10
2022-08-17T15:16:28.671Z,8.8
2022-08-17T15:18:43.318Z,10.6
2022-08-17T15:20:57.799Z,8.9
2022-08-17T15:23:12.326Z,9
2022-08-17T15:25:28.023Z,11.3
2022-08-17T15:27:42.692Z,10.7
2022-08-17T15:29:58.138Z,11.9
2022-08-17T15:32:12.595Z,10.5
2022-08-17T15:34:26.948Z,11
2022-08-17T15:36:47.939Z,9.2
2022-08-17T15:38:58.701Z,9.9
2022-08-17T15:41:13.182Z,11.1
2022-08-17T15:43:28.690Z,9.8
2022-08-17T15:45:43.003Z,11
2022-08-17T15:47:58.265Z,10.3
2022-08-17T15:50:12.784Z,9.5
2022-08-17T15:52:27.279Z,10.4
2022-08-17T15:54:42.594Z,9.5
2022-08-17T15:56:58.288Z,9.1
2022-08-17T15:59:12.684Z,10
2022-08-17T16:02:16.330Z,10.5
2022-08-17T16:04:01.681Z,9
2022-08-17T16:06:01.685Z,9.6
2022-08-17T16:08:21.065Z,10.4
2022-08-17T16:10:35.936Z,9.7
2022-08-17T16:12:50.101Z,10
2022-08-17T16:15:04.138Z,11
2022-08-17T16:17:29.725Z,8.5
2022-08-17T16:19:36.004Z,7.8
2022-08-17T16:21:50.365Z,8.1
2022-08-17T16:24:04.697Z,11.9
2022-08-17T16:26:19.149Z,10.3
2022-08-17T16:28:36.613Z,11.7
2022-08-17T16:30:51.117Z,10
2022-08-17T16:33:05.472Z,9.4
2022-08-17T16:35:19.911Z,12.9
2022-08-17T16:37:35.249Z,10.4
2022-08-17T16:39:49.789Z,9.7
2022-08-17T16:42:04.192Z,10
2022-08-17T16:44:18.540Z,9.5
2022-08-17T16:46:33.023Z,9.5
2022-08-17T16:48:47.450Z,9.6
2022-08-17T16:51:04.546Z,8.9
2022-08-17T16:53:18.376Z,9.6
2022-08-17T16:55:33.209Z,8.8
2022-08-17T16:57:49.973Z,8.5
2022-08-17T17:00:04.116Z,8.1
2022-08-17T17:02:18.495Z,7.5
2022-08-17T17:04:35.429Z,10.5
2022-08-17T17:06:49.235Z,9.2
2022-08-17T17:09:03.594Z,9.3
2022-08-17T17:11:17.999Z,9.9
2022-08-17T17:13:33.350Z,9
2022-08-17T17:15:47.722Z,9
2022-08-17T17:18:04.288Z,10.7
2022-08-17T17:20:19.435Z,9.1
2022-08-17T17:22:33.815Z,7.3
2022-08-17T17:24:50.399Z,9.4
2022-08-17T17:27:07.352Z,8
2022-08-17T17:29:22.126Z,8.6
2022-08-17T17:31:36.583Z,9
2022-08-17T17:33:50.951Z,8
2022-08-17T17:36:05.378Z,10
2022-08-17T17:38:19.782Z,9.3
2022-08-17T17:40:34.394Z,9.5
2022-08-17T17:42:48.849Z,9.4
2022-08-17T17:45:03.215Z,11.7
2022-08-17T17:47:18.556Z,10.7
2022-08-17T17:49:33.022Z,10
2022-08-17T17:52:02.026Z,9.1
2022-08-17T17:54:04.920Z,9.4
2022-08-17T17:56:40.407Z,9.1
2022-08-17T17:58:36.637Z,9.2
2022-08-17T18:00:51.030Z,9.4
2022-08-17T18:03:05.385Z,9.4
2022-08-17T18:05:19.797Z,8.7
2022-08-17T18:07:35.188Z,9.7
2022-08-17T18:09:51.785Z,9.3
2022-08-17T18:12:06.893Z,8.6
2022-08-17T18:14:21.240Z,10.6
2022-08-17T18:16:35.600Z,10.5
2022-08-17T18:18:50.019Z,10.4
2022-08-17T18:21:04.419Z,10.3
2022-08-17T18:23:18.812Z,10.2
2022-08-17T18:25:33.237Z,10.2
2022-08-17T18:27:47.598Z,11
2022-08-17T18:30:07.226Z,11.1
2022-08-17T18:32:18.438Z,12.1
2022-08-17T18:34:46.904Z,11.8
2022-08-17T18:36:50.254Z,11.4
2022-08-17T18:39:05.749Z,12
2022-08-17T18:41:21.741Z,12.1
2022-08-17T18:43:44.539Z,11.3
2022-08-17T18:45:57.032Z,11.2
2022-08-17T18:48:11.634Z,11.2
2022-08-17T18:50:26.917Z,10.3
2022-08-17T18:52:41.283Z,10.9
2022-08-17T18:54:55.823Z,10.7
2022-08-17T18:57:11.555Z,10.3
2022-08-17T18:59:25.948Z,10
2022-08-17T19:01:52.563Z,10.4
2022-08-17T19:03:57.762Z,10.2
2022-08-17T19:06:12.909Z,11.1
2022-08-17T19:08:27.301Z,10.1
2022-08-17T19:10:46.596Z,11.7
2022-08-17T19:13:01.182Z,11.6
2022-08-17T19:15:15.428Z,12.2
2022-08-17T19:17:29.796Z,12.5
2022-08-17T19:19:44.304Z,11.2
2022-08-17T19:21:58.722Z,11.8
2022-08-17T19:24:13.161Z,10.9
2022-08-17T19:26:51.698Z,11
2022-08-17T19:28:48.032Z,11.7
2022-08-17T19:31:02.243Z,11
2022-08-17T19:33:16.739Z,11
2022-08-17T19:35:32.205Z,11.3
2022-08-17T19:37:46.700Z,11.4
2022-08-17T19:40:02.131Z,10.8
2022-08-17T19:42:16.391Z,10.9
2022-08-17T19:44:30.738Z,12.2
2022-08-17T19:46:48.760Z,12
2022-08-17T19:49:02.602Z,12.2
2022-08-17T19:51:16.993Z,11.7
2022-08-17T19:53:54.466Z,12.2
2022-08-17T19:55:49.724Z,11.5
2022-08-17T19:58:04.380Z,11.9
2022-08-17T20:00:18.786Z,11.3
2022-08-17T20:02:33.187Z,10.8
2022-08-17T20:04:47.580Z,11.2
2022-08-17T20:07:01.963Z,10.7
2022-08-17T20:09:17.392Z,10.6
2022-08-17T20:11:31.818Z,10.6
2022-08-17T20:13:46.164Z,10.7
2022-08-17T20:16:00.644Z,11.6
2022-08-17T20:18:14.997Z,11.6
2022-08-17T20:20:30.448Z,11.1
2022-08-17T20:22:49.732Z,12.2
2022-08-17T20:25:02.279Z,12
2022-08-17T20:27:17.626Z,11.8
2022-08-17T20:29:37.940Z,11.8
2022-08-17T20:31:49.521Z,11.9
2022-08-17T20:34:04.920Z,12.1
2022-08-17T20:36:19.345Z,12.1
2022-08-17T20:38:33.779Z,12
2022-08-17T20:40:49.239Z,11.6
2022-08-17T20:43:03.632Z,12
2022-08-17T20:45:17.997Z,12.4
2022-08-17T20:47:32.381Z,11.7
2022-08-17T20:49:46.738Z,11.6
2022-08-17T20:52:03.217Z,12.2
2022-08-17T20:54:17.566Z,12.4
2022-08-17T20:56:33.059Z,11.7
2022-08-17T20:58:48.210Z,12.9
2022-08-17T21:01:03.753Z,13.1
2022-08-17T21:03:19.250Z,12.5
2022-08-17T21:05:36.577Z,11.7
2022-08-17T21:07:51.830Z,12.9
2022-08-17T21:10:08.968Z,12.9
2022-08-17T21:12:24.489Z,12.5
2022-08-17T21:14:39.660Z,12
2022-08-17T21:16:55.007Z,10.5
2022-08-17T21:19:09.405Z,11.4
2022-08-17T21:21:23.760Z,10.8
2022-08-17T21:23:38.184Z,12
2022-08-17T21:25:52.764Z,11.7
2022-08-17T21:28:07.189Z,12.1
